sensor_id;sensor_type;location;lat;lon;timestamp;P1;durP1;ratioP1;P2;durP2;ratioP2
59476;SDS011;45713;49.766;6.592;2022-09-17T00:00:59;3.38;;;2.17;;
59476;SDS011;45713;49.766;6.592;2022-09-17T00:03:26;2.85;;;2.22;;
59476;SDS011;45713;49.766;6.592;2022-09-17T00:06:01;3.05;;;2.20;;
59476;SDS011;45713;49.766;6.592;2022-09-17T00:08:27;4.15;;;2.40;;
59476;SDS011;45713;49.766;6.592;2022-09-17T00:10:53;4.63;;;2.08;;
59476;SDS011;45713;49.766;6.592;2022-09-17T00:13:19;2.70;;;2.20;;
59476;SDS011;45713;49.766;6.592;2022-09-17T00:15:45;5.55;;;2.15;;
59476;SDS011;45713;49.766;6.592;2022-09-17T00:18:12;2.97;;;2.13;;
59476;SDS011;45713;49.766;6.592;2022-09-17T00:20:43;3.67;;;2.05;;
59476;SDS011;45713;49.766;6.592;2022-09-17T00:23:09;5.38;;;2.13;;
59476;SDS011;45713;49.766;6.592;2022-09-17T00:25:37;2.95;;;1.90;;
59476;SDS011;45713;49.766;6.592;2022-09-17T00:28:03;3.33;;;2.38;;
59476;SDS011;45713;49.766;6.592;2022-09-17T00:30:29;3.72;;;2.28;;
59476;SDS011;45713;49.766;6.592;2022-09-17T00:32:55;3.90;;;2.47;;
59476;SDS011;45713;49.766;6.592;2022-09-17T00:35:25;3.55;;;2.20;;
59476;SDS011;45713;49.766;6.592;2022-09-17T00:37:51;3.33;;;2.35;;
59476;SDS011;45713;49.766;6.592;2022-09-17T00:40:18;3.95;;;2.40;;
59476;SDS011;45713;49.766;6.592;2022-09-17T00:42:44;3.00;;;2.70;;
59476;SDS011;45713;49.766;6.592;2022-09-17T00:45:10;2.80;;;2.40;;
59476;SDS011;45713;49.766;6.592;2022-09-17T00:47:48;4.53;;;2.50;;
59476;SDS011;45713;49.766;6.592;2022-09-17T00:50:21;3.53;;;2.50;;
59476;SDS011;45713;49.766;6.592;2022-09-17T00:53:02;5.40;;;2.88;;
59476;SDS011;45713;49.766;6.592;2022-09-17T00:55:31;3.97;;;2.95;;
59476;SDS011;45713;49.766;6.592;2022-09-17T00:57:58;4.72;;;2.95;;
59476;SDS011;45713;49.766;6.592;2022-09-17T01:00:27;4.22;;;2.97;;
59476;SDS011;45713;49.766;6.592;2022-09-17T01:02:53;4.55;;;2.90;;
59476;SDS011;45713;49.766;6.592;2022-09-17T01:05:20;4.95;;;2.88;;
59476;SDS011;45713;49.766;6.592;2022-09-17T01:15:41;6.72;;;3.33;;
59476;SDS011;45713;49.766;6.592;2022-09-17T01:31:17;5.03;;;3.25;;
59476;SDS011;45713;49.766;6.592;2022-09-17T01:33:52;8.55;;;4.13;;
59476;SDS011;45713;49.766;6.592;2022-09-17T01:39:19;5.93;;;4.13;;
59476;SDS011;45713;49.766;6.592;2022-09-17T01:44:25;6.20;;;3.70;;
59476;SDS011;45713;49.766;6.592;2022-09-17T01:46:56;7.57;;;4.53;;
59476;SDS011;45713;49.766;6.592;2022-09-17T01:49:23;6.35;;;3.65;;
59476;SDS011;45713;49.766;6.592;2022-09-17T01:51:50;5.90;;;4.10;;
59476;SDS011;45713;49.766;6.592;2022-09-17T01:55:00;5.63;;;4.25;;
59476;SDS011;45713;49.766;6.592;2022-09-17T01:57:07;6.60;;;3.97;;
59476;SDS011;45713;49.766;6.592;2022-09-17T02:02:30;6.50;;;3.67;;
59476;SDS011;45713;49.766;6.592;2022-09-17T02:05:17;5.13;;;3.70;;
59476;SDS011;45713;49.766;6.592;2022-09-17T02:07:46;6.47;;;3.88;;
59476;SDS011;45713;49.766;6.592;2022-09-17T02:10:19;9.50;;;4.18;;
59476;SDS011;45713;49.766;6.592;2022-09-17T02:12:49;5.57;;;4.13;;
59476;SDS011;45713;49.766;6.592;2022-09-17T02:15:22;4.93;;;3.65;;
59476;SDS011;45713;49.766;6.592;2022-09-17T02:17:57;5.90;;;3.78;;
59476;SDS011;45713;49.766;6.592;2022-09-17T02:20:29;5.63;;;3.80;;
59476;SDS011;45713;49.766;6.592;2022-09-17T02:22:59;6.22;;;3.97;;
59476;SDS011;45713;49.766;6.592;2022-09-17T02:27:56;9.07;;;4.20;;
59476;SDS011;45713;49.766;6.592;2022-09-17T02:30:25;5.95;;;3.90;;
59476;SDS011;45713;49.766;6.592;2022-09-17T02:32:52;6.78;;;3.92;;
59476;SDS011;45713;49.766;6.592;2022-09-17T02:35:18;7.38;;;3.55;;
59476;SDS011;45713;49.766;6.592;2022-09-17T02:37:44;5.05;;;3.60;;
59476;SDS011;45713;49.766;6.592;2022-09-17T02:40:11;6.30;;;3.60;;
59476;SDS011;45713;49.766;6.592;2022-09-17T02:45:14;7.10;;;3.80;;
59476;SDS011;45713;49.766;6.592;2022-09-17T02:55:18;6.57;;;3.57;;
59476;SDS011;45713;49.766;6.592;2022-09-17T02:57:46;5.97;;;3.40;;
59476;SDS011;45713;49.766;6.592;2022-09-17T03:00:18;4.60;;;3.50;;
59476;SDS011;45713;49.766;6.592;2022-09-17T03:02:46;5.85;;;3.60;;
59476;SDS011;45713;49.766;6.592;2022-09-17T03:05:13;8.10;;;3.40;;
59476;SDS011;45713;49.766;6.592;2022-09-17T03:07:40;4.25;;;3.00;;
59476;SDS011;45713;49.766;6.592;2022-09-17T03:10:06;5.65;;;3.40;;
59476;SDS011;45713;49.766;6.592;2022-09-17T03:12:32;4.85;;;3.40;;
59476;SDS011;45713;49.766;6.592;2022-09-17T03:14:59;7.93;;;3.83;;
59476;SDS011;45713;49.766;6.592;2022-09-17T03:17:25;5.00;;;3.38;;
59476;SDS011;45713;49.766;6.592;2022-09-17T03:19:51;5.22;;;3.53;;
59476;SDS011;45713;49.766;6.592;2022-09-17T03:22:17;7.15;;;3.47;;
59476;SDS011;45713;49.766;6.592;2022-09-17T03:24:43;8.23;;;3.97;;
59476;SDS011;45713;49.766;6.592;2022-09-17T03:27:09;6.40;;;3.40;;
59476;SDS011;45713;49.766;6.592;2022-09-17T03:29:35;4.88;;;3.50;;
59476;SDS011;45713;49.766;6.592;2022-09-17T03:32:01;5.60;;;3.30;;
59476;SDS011;45713;49.766;6.592;2022-09-17T03:34:27;5.13;;;3.40;;
59476;SDS011;45713;49.766;6.592;2022-09-17T03:36:53;5.72;;;3.45;;
59476;SDS011;45713;49.766;6.592;2022-09-17T03:39:19;5.72;;;3.72;;
59476;SDS011;45713;49.766;6.592;2022-09-17T03:41:45;5.53;;;3.60;;
59476;SDS011;45713;49.766;6.592;2022-09-17T03:44:11;6.20;;;3.53;;
59476;SDS011;45713;49.766;6.592;2022-09-17T03:46:37;6.20;;;3.92;;
59476;SDS011;45713;49.766;6.592;2022-09-17T03:49:03;7.15;;;3.38;;
59476;SDS011;45713;49.766;6.592;2022-09-17T03:51:29;7.60;;;3.47;;
59476;SDS011;45713;49.766;6.592;2022-09-17T03:53:55;8.77;;;4.28;;
59476;SDS011;45713;49.766;6.592;2022-09-17T03:56:21;5.25;;;3.40;;
59476;SDS011;45713;49.766;6.592;2022-09-17T03:58:47;6.65;;;4.00;;
59476;SDS011;45713;49.766;6.592;2022-09-17T04:01:13;5.32;;;3.67;;
59476;SDS011;45713;49.766;6.592;2022-09-17T04:03:39;8.13;;;3.67;;
59476;SDS011;45713;49.766;6.592;2022-09-17T04:06:05;6.43;;;3.78;;
59476;SDS011;45713;49.766;6.592;2022-09-17T04:08:31;7.07;;;3.50;;
59476;SDS011;45713;49.766;6.592;2022-09-17T04:10:57;4.82;;;3.40;;
59476;SDS011;45713;49.766;6.592;2022-09-17T04:13:23;8.85;;;3.65;;
59476;SDS011;45713;49.766;6.592;2022-09-17T04:15:49;7.82;;;3.97;;
59476;SDS011;45713;49.766;6.592;2022-09-17T04:18:16;6.13;;;3.78;;
59476;SDS011;45713;49.766;6.592;2022-09-17T04:20:42;7.55;;;3.78;;
59476;SDS011;45713;49.766;6.592;2022-09-17T04:23:09;6.38;;;3.60;;
59476;SDS011;45713;49.766;6.592;2022-09-17T04:25:35;7.25;;;3.70;;
59476;SDS011;45713;49.766;6.592;2022-09-17T04:28:01;6.57;;;3.58;;
59476;SDS011;45713;49.766;6.592;2022-09-17T04:30:27;6.97;;;3.63;;
59476;SDS011;45713;49.766;6.592;2022-09-17T04:32:54;6.35;;;3.53;;
59476;SDS011;45713;49.766;6.592;2022-09-17T04:35:20;6.65;;;3.60;;
59476;SDS011;45713;49.766;6.592;2022-09-17T04:37:52;6.95;;;3.70;;
59476;SDS011;45713;49.766;6.592;2022-09-17T04:40:19;8.52;;;3.63;;
59476;SDS011;45713;49.766;6.592;2022-09-17T04:42:45;10.50;;;3.55;;
59476;SDS011;45713;49.766;6.592;2022-09-17T04:45:11;7.70;;;3.50;;
59476;SDS011;45713;49.766;6.592;2022-09-17T04:47:38;6.95;;;3.60;;
59476;SDS011;45713;49.766;6.592;2022-09-17T04:50:04;6.20;;;4.00;;
59476;SDS011;45713;49.766;6.592;2022-09-17T04:52:30;8.07;;;3.80;;
59476;SDS011;45713;49.766;6.592;2022-09-17T04:54:56;7.85;;;4.10;;
59476;SDS011;45713;49.766;6.592;2022-09-17T04:57:22;5.97;;;3.90;;
59476;SDS011;45713;49.766;6.592;2022-09-17T04:59:49;8.00;;;3.63;;
59476;SDS011;45713;49.766;6.592;2022-09-17T05:02:15;5.60;;;3.65;;
59476;SDS011;45713;49.766;6.592;2022-09-17T05:04:41;9.13;;;4.10;;
59476;SDS011;45713;49.766;6.592;2022-09-17T05:07:07;5.13;;;3.42;;
59476;SDS011;45713;49.766;6.592;2022-09-17T05:09:33;6.72;;;3.33;;
59476;SDS011;45713;49.766;6.592;2022-09-17T05:11:59;7.07;;;4.15;;
59476;SDS011;45713;49.766;6.592;2022-09-17T05:14:25;5.97;;;3.75;;
59476;SDS011;45713;49.766;6.592;2022-09-17T05:16:52;7.25;;;3.65;;
59476;SDS011;45713;49.766;6.592;2022-09-17T05:19:18;8.30;;;3.70;;
59476;SDS011;45713;49.766;6.592;2022-09-17T05:21:44;6.80;;;4.10;;
59476;SDS011;45713;49.766;6.592;2022-09-17T05:24:10;6.60;;;3.67;;
59476;SDS011;45713;49.766;6.592;2022-09-17T05:26:36;10.70;;;3.85;;
59476;SDS011;45713;49.766;6.592;2022-09-17T05:29:02;7.03;;;3.75;;
59476;SDS011;45713;49.766;6.592;2022-09-17T05:31:28;6.85;;;3.80;;
59476;SDS011;45713;49.766;6.592;2022-09-17T05:33:56;5.80;;;3.78;;
59476;SDS011;45713;49.766;6.592;2022-09-17T05:36:23;5.13;;;3.42;;
59476;SDS011;45713;49.766;6.592;2022-09-17T05:38:49;8.43;;;3.80;;
59476;SDS011;45713;49.766;6.592;2022-09-17T05:41:15;5.40;;;3.80;;
59476;SDS011;45713;49.766;6.592;2022-09-17T05:43:44;6.75;;;4.07;;
59476;SDS011;45713;49.766;6.592;2022-09-17T05:46:10;8.75;;;4.03;;
59476;SDS011;45713;49.766;6.592;2022-09-17T05:48:36;7.22;;;3.92;;
59476;SDS011;45713;49.766;6.592;2022-09-17T05:51:02;8.88;;;4.07;;
59476;SDS011;45713;49.766;6.592;2022-09-17T05:53:28;6.53;;;4.05;;
59476;SDS011;45713;49.766;6.592;2022-09-17T05:55:55;9.35;;;3.97;;
59476;SDS011;45713;49.766;6.592;2022-09-17T05:58:21;7.55;;;3.65;;
59476;SDS011;45713;49.766;6.592;2022-09-17T06:00:47;8.13;;;3.75;;
59476;SDS011;45713;49.766;6.592;2022-09-17T06:03:13;6.40;;;4.07;;
59476;SDS011;45713;49.766;6.592;2022-09-17T06:05:40;5.57;;;3.63;;
59476;SDS011;45713;49.766;6.592;2022-09-17T06:08:06;8.15;;;3.75;;
59476;SDS011;45713;49.766;6.592;2022-09-17T06:10:36;6.22;;;3.90;;
59476;SDS011;45713;49.766;6.592;2022-09-17T06:13:02;10.27;;;5.43;;
59476;SDS011;45713;49.766;6.592;2022-09-17T06:15:29;8.40;;;3.67;;
59476;SDS011;45713;49.766;6.592;2022-09-17T06:17:55;7.80;;;4.00;;
59476;SDS011;45713;49.766;6.592;2022-09-17T06:20:21;6.65;;;3.38;;
59476;SDS011;45713;49.766;6.592;2022-09-17T06:22:47;8.70;;;4.43;;
59476;SDS011;45713;49.766;6.592;2022-09-17T06:25:13;6.28;;;3.30;;
59476;SDS011;45713;49.766;6.592;2022-09-17T06:27:39;8.10;;;3.97;;
59476;SDS011;45713;49.766;6.592;2022-09-17T06:30:05;5.68;;;3.30;;
59476;SDS011;45713;49.766;6.592;2022-09-17T06:32:31;8.52;;;4.53;;
59476;SDS011;45713;49.766;6.592;2022-09-17T06:34:57;6.45;;;3.75;;
59476;SDS011;45713;49.766;6.592;2022-09-17T06:37:27;5.55;;;3.55;;
59476;SDS011;45713;49.766;6.592;2022-09-17T06:39:53;8.07;;;3.63;;
59476;SDS011;45713;49.766;6.592;2022-09-17T06:42:19;7.43;;;3.58;;
59476;SDS011;45713;49.766;6.592;2022-09-17T06:44:45;10.55;;;3.70;;
59476;SDS011;45713;49.766;6.592;2022-09-17T06:47:11;9.30;;;3.70;;
59476;SDS011;45713;49.766;6.592;2022-09-17T06:49:37;4.10;;;3.03;;
59476;SDS011;45713;49.766;6.592;2022-09-17T06:52:03;5.28;;;3.10;;
59476;SDS011;45713;49.766;6.592;2022-09-17T06:54:29;5.72;;;3.20;;
59476;SDS011;45713;49.766;6.592;2022-09-17T06:56:55;5.43;;;3.40;;
59476;SDS011;45713;49.766;6.592;2022-09-17T06:59:21;6.22;;;3.33;;
59476;SDS011;45713;49.766;6.592;2022-09-17T07:01:47;5.95;;;2.83;;
59476;SDS011;45713;49.766;6.592;2022-09-17T07:04:13;5.03;;;3.10;;
59476;SDS011;45713;49.766;6.592;2022-09-17T07:06:42;5.05;;;3.17;;
59476;SDS011;45713;49.766;6.592;2022-09-17T07:09:08;4.68;;;2.85;;
59476;SDS011;45713;49.766;6.592;2022-09-17T07:11:35;5.82;;;2.60;;
59476;SDS011;45713;49.766;6.592;2022-09-17T07:14:01;4.28;;;2.83;;
59476;SDS011;45713;49.766;6.592;2022-09-17T07:16:28;3.78;;;2.60;;
59476;SDS011;45713;49.766;6.592;2022-09-17T07:18:59;4.65;;;2.63;;
59476;SDS011;45713;49.766;6.592;2022-09-17T07:21:25;4.95;;;2.25;;
59476;SDS011;45713;49.766;6.592;2022-09-17T07:23:51;3.38;;;2.05;;
59476;SDS011;45713;49.766;6.592;2022-09-17T07:26:17;4.15;;;2.10;;
59476;SDS011;45713;49.766;6.592;2022-09-17T07:28:43;5.88;;;2.38;;
59476;SDS011;45713;49.766;6.592;2022-09-17T07:31:10;2.35;;;1.98;;
59476;SDS011;45713;49.766;6.592;2022-09-17T07:33:36;3.38;;;2.03;;
59476;SDS011;45713;49.766;6.592;2022-09-17T07:36:03;4.10;;;2.00;;
59476;SDS011;45713;49.766;6.592;2022-09-17T07:38:30;6.10;;;2.80;;
59476;SDS011;45713;49.766;6.592;2022-09-17T07:43:27;4.40;;;2.70;;
59476;SDS011;45713;49.766;6.592;2022-09-17T07:45:55;3.33;;;2.10;;
59476;SDS011;45713;49.766;6.592;2022-09-17T07:48:21;4.75;;;2.63;;
59476;SDS011;45713;49.766;6.592;2022-09-17T07:50:47;4.32;;;2.88;;
59476;SDS011;45713;49.766;6.592;2022-09-17T07:53:13;5.53;;;2.28;;
59476;SDS011;45713;49.766;6.592;2022-09-17T07:55:39;4.10;;;2.20;;
59476;SDS011;45713;49.766;6.592;2022-09-17T07:58:05;3.45;;;2.55;;
59476;SDS011;45713;49.766;6.592;2022-09-17T08:00:31;4.35;;;2.30;;
59476;SDS011;45713;49.766;6.592;2022-09-17T08:02:58;5.40;;;3.35;;
59476;SDS011;45713;49.766;6.592;2022-09-17T08:05:24;3.70;;;2.35;;
59476;SDS011;45713;49.766;6.592;2022-09-17T08:07:51;4.03;;;2.20;;
59476;SDS011;45713;49.766;6.592;2022-09-17T08:10:18;2.78;;;1.88;;
59476;SDS011;45713;49.766;6.592;2022-09-17T08:12:46;4.20;;;2.10;;
59476;SDS011;45713;49.766;6.592;2022-09-17T08:15:13;4.95;;;2.25;;
59476;SDS011;45713;49.766;6.592;2022-09-17T08:17:42;4.32;;;2.60;;
59476;SDS011;45713;49.766;6.592;2022-09-17T08:20:08;4.32;;;2.28;;
59476;SDS011;45713;49.766;6.592;2022-09-17T08:22:34;7.20;;;3.38;;
59476;SDS011;45713;49.766;6.592;2022-09-17T08:25:00;4.68;;;2.88;;
59476;SDS011;45713;49.766;6.592;2022-09-17T08:27:28;5.25;;;2.60;;
59476;SDS011;45713;49.766;6.592;2022-09-17T08:29:55;3.55;;;2.17;;
59476;SDS011;45713;49.766;6.592;2022-09-17T08:32:21;6.45;;;2.50;;
59476;SDS011;45713;49.766;6.592;2022-09-17T08:34:47;5.97;;;2.50;;
59476;SDS011;45713;49.766;6.592;2022-09-17T08:37:13;5.03;;;2.60;;
59476;SDS011;45713;49.766;6.592;2022-09-17T08:39:39;5.97;;;3.10;;
59476;SDS011;45713;49.766;6.592;2022-09-17T08:42:16;7.28;;;3.05;;
59476;SDS011;45713;49.766;6.592;2022-09-17T08:44:45;7.70;;;3.60;;
59476;SDS011;45713;49.766;6.592;2022-09-17T08:49:47;6.25;;;3.47;;
59476;SDS011;45713;49.766;6.592;2022-09-17T08:52:24;6.50;;;2.85;;
59476;SDS011;45713;49.766;6.592;2022-09-17T09:00:05;5.22;;;3.00;;
59476;SDS011;45713;49.766;6.592;2022-09-17T09:05:19;4.68;;;2.67;;
59476;SDS011;45713;49.766;6.592;2022-09-17T09:07:48;5.05;;;2.80;;
59476;SDS011;45713;49.766;6.592;2022-09-17T09:10:19;6.77;;;3.03;;
59476;SDS011;45713;49.766;6.592;2022-09-17T09:12:47;5.43;;;3.00;;
59476;SDS011;45713;49.766;6.592;2022-09-17T09:15:20;5.20;;;2.65;;
59476;SDS011;45713;49.766;6.592;2022-09-17T09:17:48;4.90;;;2.70;;
59476;SDS011;45713;49.766;6.592;2022-09-17T09:20:17;11.70;;;3.35;;
59476;SDS011;45713;49.766;6.592;2022-09-17T09:22:48;7.15;;;3.65;;
59476;SDS011;45713;49.766;6.592;2022-09-17T09:30:17;6.38;;;2.60;;
59476;SDS011;45713;49.766;6.592;2022-09-17T09:32:50;5.75;;;2.55;;
59476;SDS011;45713;49.766;6.592;2022-09-17T09:35:21;8.32;;;3.10;;
59476;SDS011;45713;49.766;6.592;2022-09-17T09:37:53;7.85;;;4.50;;
59476;SDS011;45713;49.766;6.592;2022-09-17T09:43:16;6.97;;;2.95;;
59476;SDS011;45713;49.766;6.592;2022-09-17T09:45:48;6.72;;;3.53;;
59476;SDS011;45713;49.766;6.592;2022-09-17T09:53:40;5.35;;;2.70;;
59476;SDS011;45713;49.766;6.592;2022-09-17T09:58:49;7.45;;;3.47;;
59476;SDS011;45713;49.766;6.592;2022-09-17T10:01:16;9.88;;;3.17;;
59476;SDS011;45713;49.766;6.592;2022-09-17T10:03:44;4.30;;;2.75;;
59476;SDS011;45713;49.766;6.592;2022-09-17T10:06:11;3.92;;;3.08;;
59476;SDS011;45713;49.766;6.592;2022-09-17T10:08:38;5.35;;;2.55;;
59476;SDS011;45713;49.766;6.592;2022-09-17T10:11:06;6.88;;;2.90;;
59476;SDS011;45713;49.766;6.592;2022-09-17T10:13:41;7.07;;;2.50;;
59476;SDS011;45713;49.766;6.592;2022-09-17T10:16:17;8.65;;;2.80;;
59476;SDS011;45713;49.766;6.592;2022-09-17T10:18:43;5.43;;;2.70;;
59476;SDS011;45713;49.766;6.592;2022-09-17T10:21:20;3.72;;;2.50;;
59476;SDS011;45713;49.766;6.592;2022-09-17T10:23:46;4.75;;;2.70;;
59476;SDS011;45713;49.766;6.592;2022-09-17T10:26:19;8.45;;;2.60;;
59476;SDS011;45713;49.766;6.592;2022-09-17T10:28:48;7.57;;;2.70;;
59476;SDS011;45713;49.766;6.592;2022-09-17T10:31:15;6.38;;;2.45;;
59476;SDS011;45713;49.766;6.592;2022-09-17T10:33:51;4.05;;;2.35;;
59476;SDS011;45713;49.766;6.592;2022-09-17T10:36:33;5.32;;;2.83;;
59476;SDS011;45713;49.766;6.592;2022-09-17T10:39:10;5.85;;;2.78;;
59476;SDS011;45713;49.766;6.592;2022-09-17T10:41:52;4.28;;;2.10;;
59476;SDS011;45713;49.766;6.592;2022-09-17T10:44:22;5.28;;;2.20;;
59476;SDS011;45713;49.766;6.592;2022-09-17T10:46:49;6.53;;;2.53;;
59476;SDS011;45713;49.766;6.592;2022-09-17T10:51:50;3.58;;;2.28;;
59476;SDS011;45713;49.766;6.592;2022-09-17T10:56:44;4.95;;;2.50;;
59476;SDS011;45713;49.766;6.592;2022-09-17T11:01:45;5.05;;;2.30;;
59476;SDS011;45713;49.766;6.592;2022-09-17T11:04:21;3.42;;;2.13;;
59476;SDS011;45713;49.766;6.592;2022-09-17T11:20:02;4.40;;;1.75;;
59476;SDS011;45713;49.766;6.592;2022-09-17T11:25:14;4.05;;;2.30;;
59476;SDS011;45713;49.766;6.592;2022-09-17T11:27:58;4.13;;;2.10;;
59476;SDS011;45713;49.766;6.592;2022-09-17T11:30:25;6.05;;;2.40;;
59476;SDS011;45713;49.766;6.592;2022-09-17T11:35:34;2.67;;;1.90;;
59476;SDS011;45713;49.766;6.592;2022-09-17T11:38:03;5.53;;;2.10;;
59476;SDS011;45713;49.766;6.592;2022-09-17T11:40:33;5.15;;;2.40;;
59476;SDS011;45713;49.766;6.592;2022-09-17T11:43:03;7.38;;;2.42;;
59476;SDS011;45713;49.766;6.592;2022-09-17T11:45:33;3.33;;;1.88;;
59476;SDS011;45713;49.766;6.592;2022-09-17T11:50:28;3.38;;;2.17;;
59476;SDS011;45713;49.766;6.592;2022-09-17T11:53:02;4.75;;;2.25;;
59476;SDS011;45713;49.766;6.592;2022-09-17T11:58:09;5.07;;;2.40;;
59476;SDS011;45713;49.766;6.592;2022-09-17T12:00:38;3.58;;;2.15;;
59476;SDS011;45713;49.766;6.592;2022-09-17T12:03:11;4.25;;;2.30;;
59476;SDS011;45713;49.766;6.592;2022-09-17T12:05:44;4.10;;;2.10;;
59476;SDS011;45713;49.766;6.592;2022-09-17T12:08:13;3.47;;;1.92;;
59476;SDS011;45713;49.766;6.592;2022-09-17T12:13:25;4.55;;;2.20;;
59476;SDS011;45713;49.766;6.592;2022-09-17T12:18:52;2.78;;;1.80;;
59476;SDS011;45713;49.766;6.592;2022-09-17T12:21:21;4.97;;;2.08;;
59476;SDS011;45713;49.766;6.592;2022-09-17T12:23:53;5.18;;;1.92;;
59476;SDS011;45713;49.766;6.592;2022-09-17T12:28:52;4.68;;;1.98;;
59476;SDS011;45713;49.766;6.592;2022-09-17T12:31:34;2.95;;;1.75;;
59476;SDS011;45713;49.766;6.592;2022-09-17T12:37:07;3.55;;;1.50;;
59476;SDS011;45713;49.766;6.592;2022-09-17T13:21:00;2.03;;;1.80;;
59476;SDS011;45713;49.766;6.592;2022-09-17T13:23:29;5.40;;;1.90;;
59476;SDS011;45713;49.766;6.592;2022-09-17T13:25:55;4.45;;;1.77;;
59476;SDS011;45713;49.766;6.592;2022-09-17T13:28:34;3.53;;;2.65;;
59476;SDS011;45713;49.766;6.592;2022-09-17T13:31:01;4.95;;;2.45;;
59476;SDS011;45713;49.766;6.592;2022-09-17T13:38:58;2.75;;;2.00;;
59476;SDS011;45713;49.766;6.592;2022-09-17T13:41:25;3.63;;;2.05;;
59476;SDS011;45713;49.766;6.592;2022-09-17T13:43:52;4.45;;;2.20;;
59476;SDS011;45713;49.766;6.592;2022-09-17T13:46:22;3.40;;;2.40;;
59476;SDS011;45713;49.766;6.592;2022-09-17T13:48:51;3.35;;;2.22;;
59476;SDS011;45713;49.766;6.592;2022-09-17T13:51:51;3.00;;;2.20;;
59476;SDS011;45713;49.766;6.592;2022-09-17T13:54:10;2.88;;;1.88;;
59476;SDS011;45713;49.766;6.592;2022-09-17T13:56:37;2.38;;;1.70;;
59476;SDS011;45713;49.766;6.592;2022-09-17T13:59:28;2.55;;;2.08;;
59476;SDS011;45713;49.766;6.592;2022-09-17T14:01:58;3.45;;;2.10;;
59476;SDS011;45713;49.766;6.592;2022-09-17T14:09:58;1.70;;;1.60;;
59476;SDS011;45713;49.766;6.592;2022-09-17T14:17:52;1.45;;;1.40;;
59476;SDS011;45713;49.766;6.592;2022-09-17T14:20:19;1.55;;;1.45;;
59476;SDS011;45713;49.766;6.592;2022-09-17T14:22:53;1.52;;;1.40;;
59476;SDS011;45713;49.766;6.592;2022-09-17T14:25:19;1.50;;;1.40;;
59476;SDS011;45713;49.766;6.592;2022-09-17T14:27:59;1.42;;;1.33;;
59476;SDS011;45713;49.766;6.592;2022-09-17T14:30:31;1.88;;;1.50;;
59476;SDS011;45713;49.766;6.592;2022-09-17T14:35:33;2.47;;;1.30;;
59476;SDS011;45713;49.766;6.592;2022-09-17T14:38:02;1.45;;;1.35;;
59476;SDS011;45713;49.766;6.592;2022-09-17T14:40:28;1.67;;;1.20;;
59476;SDS011;45713;49.766;6.592;2022-09-17T14:42:56;1.95;;;1.50;;
59476;SDS011;45713;49.766;6.592;2022-09-17T14:45:24;1.80;;;1.60;;
59476;SDS011;45713;49.766;6.592;2022-09-17T14:50:36;1.63;;;1.50;;
59476;SDS011;45713;49.766;6.592;2022-09-17T14:53:06;3.38;;;1.48;;
59476;SDS011;45713;49.766;6.592;2022-09-17T14:55:32;1.98;;;1.80;;
59476;SDS011;45713;49.766;6.592;2022-09-17T14:57:58;1.42;;;1.30;;
59476;SDS011;45713;49.766;6.592;2022-09-17T15:00:32;1.92;;;1.50;;
59476;SDS011;45713;49.766;6.592;2022-09-17T15:02:58;1.40;;;1.30;;
59476;SDS011;45713;49.766;6.592;2022-09-17T15:08:12;1.35;;;1.25;;
59476;SDS011;45713;49.766;6.592;2022-09-17T15:13:18;4.32;;;1.60;;
59476;SDS011;45713;49.766;6.592;2022-09-17T15:15:52;1.70;;;1.60;;
59476;SDS011;45713;49.766;6.592;2022-09-17T15:18:19;1.73;;;1.58;;
59476;SDS011;45713;49.766;6.592;2022-09-17T15:20:46;2.30;;;1.70;;
59476;SDS011;45713;49.766;6.592;2022-09-17T15:23:17;1.80;;;1.50;;
59476;SDS011;45713;49.766;6.592;2022-09-17T15:25:45;1.35;;;1.20;;
59476;SDS011;45713;49.766;6.592;2022-09-17T15:28:26;1.80;;;1.40;;
59476;SDS011;45713;49.766;6.592;2022-09-17T15:33:19;1.55;;;1.25;;
59476;SDS011;45713;49.766;6.592;2022-09-17T15:38:27;1.40;;;1.30;;
59476;SDS011;45713;49.766;6.592;2022-09-17T15:40:53;2.72;;;1.90;;
59476;SDS011;45713;49.766;6.592;2022-09-17T15:43:24;1.70;;;1.60;;
59476;SDS011;45713;49.766;6.592;2022-09-17T15:45:52;1.90;;;1.38;;
59476;SDS011;45713;49.766;6.592;2022-09-17T15:50:51;2.13;;;1.60;;
59476;SDS011;45713;49.766;6.592;2022-09-17T15:56:00;1.40;;;1.30;;
59476;SDS011;45713;49.766;6.592;2022-09-17T15:58:28;2.42;;;1.30;;
59476;SDS011;45713;49.766;6.592;2022-09-17T16:08:42;3.05;;;1.70;;
59476;SDS011;45713;49.766;6.592;2022-09-17T16:11:11;3.30;;;1.60;;
59476;SDS011;45713;49.766;6.592;2022-09-17T16:13:37;5.78;;;3.28;;
59476;SDS011;45713;49.766;6.592;2022-09-17T16:16:03;9.10;;;5.00;;
59476;SDS011;45713;49.766;6.592;2022-09-17T16:18:29;4.00;;;2.30;;
59476;SDS011;45713;49.766;6.592;2022-09-17T16:20:55;4.03;;;2.05;;
59476;SDS011;45713;49.766;6.592;2022-09-17T16:23:21;3.72;;;2.38;;
59476;SDS011;45713;49.766;6.592;2022-09-17T16:25:47;4.55;;;2.00;;
59476;SDS011;45713;49.766;6.592;2022-09-17T16:28:15;4.50;;;2.10;;
59476;SDS011;45713;49.766;6.592;2022-09-17T16:30:43;2.63;;;1.70;;
59476;SDS011;45713;49.766;6.592;2022-09-17T16:33:10;1.70;;;1.60;;
59476;SDS011;45713;49.766;6.592;2022-09-17T16:35:37;5.80;;;2.20;;
59476;SDS011;45713;49.766;6.592;2022-09-17T16:38:03;5.38;;;3.10;;
59476;SDS011;45713;49.766;6.592;2022-09-17T16:40:29;5.65;;;3.70;;
59476;SDS011;45713;49.766;6.592;2022-09-17T16:42:58;4.50;;;2.20;;
59476;SDS011;45713;49.766;6.592;2022-09-17T16:45:24;3.03;;;1.80;;
59476;SDS011;45713;49.766;6.592;2022-09-17T16:47:50;3.60;;;1.88;;
59476;SDS011;45713;49.766;6.592;2022-09-17T16:50:17;4.68;;;1.90;;
59476;SDS011;45713;49.766;6.592;2022-09-17T16:52:43;4.57;;;1.90;;
59476;SDS011;45713;49.766;6.592;2022-09-17T16:55:10;5.30;;;2.10;;
59476;SDS011;45713;49.766;6.592;2022-09-17T16:57:37;3.00;;;2.10;;
59476;SDS011;45713;49.766;6.592;2022-09-17T17:00:04;4.22;;;2.05;;
59476;SDS011;45713;49.766;6.592;2022-09-17T17:02:31;4.72;;;2.40;;
59476;SDS011;45713;49.766;6.592;2022-09-17T17:04:57;4.30;;;2.03;;
59476;SDS011;45713;49.766;6.592;2022-09-17T17:07:23;4.50;;;2.25;;
59476;SDS011;45713;49.766;6.592;2022-09-17T17:09:49;4.32;;;2.20;;
59476;SDS011;45713;49.766;6.592;2022-09-17T17:12:15;4.13;;;2.25;;
59476;SDS011;45713;49.766;6.592;2022-09-17T17:14:41;5.22;;;2.20;;
59476;SDS011;45713;49.766;6.592;2022-09-17T17:17:13;7.50;;;2.10;;
59476;SDS011;45713;49.766;6.592;2022-09-17T17:19:39;3.42;;;2.20;;
59476;SDS011;45713;49.766;6.592;2022-09-17T17:22:06;5.78;;;2.65;;
59476;SDS011;45713;49.766;6.592;2022-09-17T17:24:32;4.88;;;2.60;;
59476;SDS011;45713;49.766;6.592;2022-09-17T17:26:58;6.72;;;2.80;;
59476;SDS011;45713;49.766;6.592;2022-09-17T17:29:25;2.30;;;1.98;;
59476;SDS011;45713;49.766;6.592;2022-09-17T17:31:51;3.55;;;2.10;;
59476;SDS011;45713;49.766;6.592;2022-09-17T17:34:17;4.05;;;2.45;;
59476;SDS011;45713;49.766;6.592;2022-09-17T17:36:43;3.80;;;2.30;;
59476;SDS011;45713;49.766;6.592;2022-09-17T17:39:09;4.65;;;3.05;;
59476;SDS011;45713;49.766;6.592;2022-09-17T17:41:35;8.80;;;4.97;;
59476;SDS011;45713;49.766;6.592;2022-09-17T17:44:01;12.60;;;9.35;;
59476;SDS011;45713;49.766;6.592;2022-09-17T17:46:27;6.65;;;5.05;;
59476;SDS011;45713;49.766;6.592;2022-09-17T17:48:53;7.70;;;4.00;;
59476;SDS011;45713;49.766;6.592;2022-09-17T17:51:19;9.00;;;4.97;;
59476;SDS011;45713;49.766;6.592;2022-09-17T17:53:47;8.18;;;5.35;;
59476;SDS011;45713;49.766;6.592;2022-09-17T17:56:15;6.18;;;3.65;;
59476;SDS011;45713;49.766;6.592;2022-09-17T17:58:41;3.38;;;2.40;;
59476;SDS011;45713;49.766;6.592;2022-09-17T18:03:36;7.53;;;4.80;;
59476;SDS011;45713;49.766;6.592;2022-09-17T18:06:03;6.88;;;3.90;;
59476;SDS011;45713;49.766;6.592;2022-09-17T18:08:30;4.75;;;2.80;;
59476;SDS011;45713;49.766;6.592;2022-09-17T18:10:56;5.38;;;2.45;;
59476;SDS011;45713;49.766;6.592;2022-09-17T18:13:28;4.13;;;1.80;;
59476;SDS011;45713;49.766;6.592;2022-09-17T18:15:55;2.83;;;1.80;;